createdAt,value
2022-10-19T00:00:20.887Z,23.20
2022-10-19T00:02:48.382Z,23.15
2022-10-19T00:04:56.289Z,23.11
2022-10-19T00:07:03.892Z,23.05
2022-10-19T00:09:13.765Z,23.01
2022-10-19T00:11:20.837Z,22.96
2022-10-19T00:13:27.682Z,22.91
2022-10-19T00:15:34.180Z,22.84
2022-10-19T00:17:41.067Z,22.81
2022-10-19T00:19:47.781Z,22.78
2022-10-19T00:21:55.067Z,22.74
2022-10-19T00:24:00.913Z,22.71
2022-10-19T00:26:07.439Z,22.65
2022-10-19T00:28:14.314Z,22.58
2022-10-19T00:30:20.574Z,22.56
2022-10-19T00:32:29.700Z,22.55
2022-10-19T00:34:36.048Z,22.55
2022-10-19T00:36:43.096Z,22.53
2022-10-19T00:38:50.432Z,22.52
2022-10-19T00:40:59.283Z,22.49
2022-10-19T00:43:05.456Z,22.47
2022-10-19T00:45:17.932Z,22.43
2022-10-19T00:47:25.944Z,22.40
2022-10-19T00:49:37.537Z,22.39
2022-10-19T00:51:45.358Z,22.36
2022-10-19T00:53:52.453Z,22.31
2022-10-19T00:55:59.968Z,22.23
2022-10-19T00:58:06.182Z,22.15
2022-10-19T01:00:12.937Z,22.08
2022-10-19T01:02:19.577Z,22.03
2022-10-19T01:04:30.884Z,21.98
2022-10-19T01:06:38.203Z,21.91
2022-10-19T01:08:44.693Z,21.84
2022-10-19T01:11:15.512Z,21.77
2022-10-19T01:13:29.778Z,21.70
2022-10-19T01:15:43.922Z,21.64
2022-10-19T01:18:11.155Z,21.58
2022-10-19T01:20:41.607Z,21.50
2022-10-19T01:23:33.699Z,21.45
2022-10-19T01:25:57.155Z,21.37
2022-10-19T01:28:33.075Z,21.29
2022-10-19T01:30:46.053Z,21.23
2022-10-19T01:33:10.827Z,21.15
2022-10-19T01:35:21.179Z,21.04
2022-10-19T01:37:58.155Z,20.96
2022-10-19T01:40:28.179Z,20.88
2022-10-19T01:42:41.973Z,20.75
2022-10-19T01:45:15.417Z,20.73
2022-10-19T01:47:28.135Z,20.65
2022-10-19T01:49:49.251Z,20.57
2022-10-19T01:52:05.360Z,20.51
2022-10-19T01:54:16.974Z,20.45
2022-10-19T01:56:29.923Z,20.40
2022-10-19T01:58:41.266Z,20.34
2022-10-19T02:00:54.635Z,20.27
2022-10-19T02:03:05.507Z,20.20
2022-10-19T02:05:19.237Z,20.14
2022-10-19T02:07:35.171Z,20.07
2022-10-19T02:09:42.075Z,20.01
2022-10-19T02:11:56.121Z,19.95
2022-10-19T02:14:09.511Z,19.89
2022-10-19T02:16:26.546Z,19.83
2022-10-19T02:18:39.593Z,19.76
2022-10-19T02:20:48.870Z,19.69
2022-10-19T02:23:01.680Z,19.65
2022-10-19T02:25:12.926Z,19.59
2022-10-19T02:27:20.505Z,19.53
2022-10-19T02:29:34.850Z,19.47
2022-10-19T02:31:45.773Z,19.41
2022-10-19T02:34:09.009Z,19.35
2022-10-19T02:41:44.010Z,19.17
2022-10-19T02:43:55.941Z,19.12
2022-10-19T02:46:07.580Z,19.07
2022-10-19T02:48:20.833Z,19.03
2022-10-19T02:50:28.875Z,18.97
2022-10-19T02:52:35.213Z,18.92
2022-10-19T02:54:44.686Z,18.88
2022-10-19T02:56:51.395Z,18.83
2022-10-19T02:58:58.110Z,18.79
2022-10-19T03:01:04.436Z,18.74
2022-10-19T03:03:12.231Z,18.70
2022-10-19T03:05:18.359Z,18.66
2022-10-19T03:07:25.224Z,18.63
2022-10-19T03:09:31.465Z,18.60
2022-10-19T03:11:38.183Z,18.57
2022-10-19T03:13:44.698Z,18.54
2022-10-19T03:15:51.426Z,18.50
2022-10-19T03:17:58.275Z,18.46
2022-10-19T03:20:04.937Z,18.42
2022-10-19T03:22:11.158Z,18.36
2022-10-19T03:24:17.546Z,18.32
2022-10-19T03:26:23.916Z,18.27
2022-10-19T03:28:30.980Z,18.23
2022-10-19T03:30:37.032Z,18.20
2022-10-19T03:32:43.605Z,18.16
2022-10-19T03:34:50.880Z,18.12
2022-10-19T03:37:00.156Z,18.09
2022-10-19T03:39:15.544Z,18.05
2022-10-19T03:41:23.580Z,18.00
2022-10-19T03:43:29.592Z,17.97
2022-10-19T03:45:35.783Z,17.92
2022-10-19T03:47:42.353Z,17.88
2022-10-19T03:49:51.287Z,17.85
2022-10-19T03:51:57.573Z,17.81
2022-10-19T03:54:07.721Z,17.80
2022-10-19T03:56:16.652Z,17.79
2022-10-19T03:58:23.074Z,17.76
2022-10-19T04:00:29.833Z,17.73
2022-10-19T04:02:36.340Z,17.72
2022-10-19T04:04:43.135Z,17.69
2022-10-19T04:06:51.263Z,17.67
2022-10-19T04:08:58.307Z,17.65
2022-10-19T04:11:07.042Z,17.62
2022-10-19T04:13:13.259Z,17.59
2022-10-19T04:15:19.999Z,17.55
2022-10-19T04:17:26.973Z,17.52
2022-10-19T04:19:33.993Z,17.49
2022-10-19T04:21:41.665Z,17.45
2022-10-19T04:23:47.796Z,17.42
2022-10-19T04:25:53.982Z,17.38
2022-10-19T04:28:00.733Z,17.36
2022-10-19T04:30:07.196Z,17.34
2022-10-19T04:32:13.907Z,17.32
2022-10-19T04:34:20.829Z,17.30
2022-10-19T04:36:27.504Z,17.28
2022-10-19T04:38:34.900Z,17.25
2022-10-19T04:40:41.193Z,17.21
2022-10-19T04:42:47.611Z,17.19
2022-10-19T04:44:53.636Z,17.14
2022-10-19T04:47:00.307Z,17.11
2022-10-19T04:49:07.796Z,17.06
2022-10-19T04:51:14.096Z,17.02
2022-10-19T04:53:20.809Z,16.96
2022-10-19T04:55:27.114Z,16.92
2022-10-19T04:57:34.045Z,16.88
2022-10-19T04:59:40.495Z,16.84
2022-10-19T05:01:47.522Z,16.79
2022-10-19T05:04:02.305Z,16.74
2022-10-19T05:06:09.331Z,16.70
2022-10-19T05:08:15.560Z,16.67
2022-10-19T05:10:22.397Z,16.65
2022-10-19T05:12:29.130Z,16.64
2022-10-19T05:14:37.903Z,16.59
2022-10-19T05:16:46.789Z,16.56
2022-10-19T05:18:57.288Z,16.51
2022-10-19T05:21:12.667Z,16.45
2022-10-19T05:23:19.236Z,16.40
2022-10-19T05:25:25.542Z,16.34
2022-10-19T05:27:32.397Z,16.30
2022-10-19T05:29:39.387Z,16.25
2022-10-19T05:31:46.000Z,16.20
2022-10-19T05:33:52.844Z,16.15
2022-10-19T05:35:59.328Z,16.12
2022-10-19T05:38:05.824Z,16.10
2022-10-19T05:40:12.576Z,16.09
2022-10-19T05:42:19.199Z,16.07
2022-10-19T05:44:25.612Z,16.04
2022-10-19T05:46:33.153Z,16.02
2022-10-19T05:48:40.897Z,15.98
2022-10-19T05:51:07.617Z,15.99
2022-10-19T05:53:14.014Z,15.97
2022-10-19T05:55:20.166Z,15.96
2022-10-19T05:57:26.929Z,15.94
2022-10-19T05:59:33.557Z,15.94
2022-10-19T06:01:40.110Z,15.91
2022-10-19T06:03:46.981Z,15.92
2022-10-19T06:05:54.321Z,15.89
2022-10-19T06:08:00.945Z,15.87
2022-10-19T06:10:08.130Z,15.83
2022-10-19T06:12:15.847Z,15.78
2022-10-19T06:14:23.808Z,15.75
2022-10-19T06:16:32.398Z,15.73
2022-10-19T06:18:39.103Z,15.72
2022-10-19T06:20:45.460Z,15.69
2022-10-19T06:22:52.227Z,15.67
2022-10-19T06:24:58.399Z,15.64
2022-10-19T06:27:04.470Z,15.63
2022-10-19T06:29:11.322Z,15.63
2022-10-19T06:31:18.693Z,15.62
2022-10-19T06:33:24.659Z,15.63
2022-10-19T06:35:31.162Z,15.63
2022-10-19T06:37:37.598Z,15.62
2022-10-19T06:39:44.466Z,15.61
2022-10-19T06:41:51.030Z,15.61
2022-10-19T06:43:57.338Z,15.60
2022-10-19T06:46:09.207Z,15.61
2022-10-19T06:48:15.240Z,15.62
2022-10-19T06:50:21.760Z,15.62
2022-10-19T06:52:27.878Z,15.63
2022-10-19T06:54:34.352Z,15.63
2022-10-19T06:56:40.745Z,15.62
2022-10-19T06:58:48.334Z,15.62
2022-10-19T07:00:59.317Z,15.61
2022-10-19T07:03:05.532Z,15.59
2022-10-19T07:05:12.274Z,15.58
2022-10-19T07:07:18.749Z,15.54
2022-10-19T07:09:24.774Z,15.50
2022-10-19T07:11:31.102Z,15.46
2022-10-19T07:13:37.682Z,15.42
2022-10-19T07:15:43.765Z,15.38
2022-10-19T07:17:50.407Z,15.36
2022-10-19T07:19:56.678Z,15.35
2022-10-19T07:22:02.935Z,15.34
2022-10-19T07:24:10.061Z,15.31
2022-10-19T07:26:24.486Z,15.29
2022-10-19T07:28:31.923Z,15.28
2022-10-19T07:30:40.244Z,15.24
2022-10-19T07:32:47.159Z,15.24
2022-10-19T07:34:53.658Z,15.22
2022-10-19T07:36:59.579Z,15.21
2022-10-19T07:39:07.971Z,15.19
2022-10-19T07:41:17.255Z,15.18
2022-10-19T07:43:23.603Z,15.17
2022-10-19T07:45:31.334Z,15.17
2022-10-19T07:47:37.865Z,15.16
2022-10-19T07:49:44.846Z,15.14
2022-10-19T07:51:55.018Z,15.10
2022-10-19T07:54:01.671Z,15.03
2022-10-19T07:56:17.565Z,14.98
2022-10-19T07:58:24.090Z,14.91
2022-10-19T08:00:30.941Z,14.84
2022-10-19T08:02:54.628Z,14.76
2022-10-19T08:05:06.342Z,14.67
2022-10-19T08:07:15.351Z,14.57
2022-10-19T08:09:51.355Z,14.50
2022-10-19T08:11:48.944Z,14.41
2022-10-19T08:13:56.149Z,14.34
2022-10-19T08:16:02.443Z,14.28
2022-10-19T08:18:08.604Z,14.21
2022-10-19T08:20:15.213Z,14.15
2022-10-19T08:22:21.480Z,14.09
2022-10-19T08:24:27.928Z,14.02
2022-10-19T08:26:37.178Z,13.95
2022-10-19T08:28:43.141Z,13.89
2022-10-19T08:30:49.943Z,13.83
2022-10-19T08:32:56.492Z,13.79
2022-10-19T08:35:04.260Z,13.73
2022-10-19T08:37:25.951Z,13.70
2022-10-19T08:39:39.503Z,13.65
2022-10-19T08:41:54.674Z,13.59
2022-10-19T08:44:16.669Z,13.54
2022-10-19T08:47:06.060Z,13.49
2022-10-19T08:49:20.975Z,13.44
2022-10-19T08:51:29.416Z,13.41
2022-10-19T08:53:53.845Z,13.38
2022-10-19T08:56:49.253Z,13.33
2022-10-19T08:58:55.373Z,13.30
2022-10-19T09:01:28.528Z,13.27
2022-10-19T09:03:56.170Z,13.24
2022-10-19T09:06:30.443Z,13.19
2022-10-19T09:08:40.492Z,13.16
2022-10-19T09:10:50.850Z,13.12
2022-10-19T09:13:09.303Z,13.09
2022-10-19T09:15:22.149Z,13.05
2022-10-19T09:17:29.366Z,13.02
2022-10-19T09:19:35.430Z,13.00
2022-10-19T09:21:59.852Z,12.98
2022-10-19T09:24:28.805Z,12.95
2022-10-19T09:26:51.648Z,12.93
2022-10-19T09:29:13.417Z,12.91
2022-10-19T09:31:44.607Z,12.90
2022-10-19T09:33:57.651Z,12.87
2022-10-19T09:36:06.601Z,12.87
2022-10-19T09:38:17.772Z,12.84
2022-10-19T09:40:30.519Z,12.82
2022-10-19T09:42:37.955Z,12.78
2022-10-19T09:44:44.470Z,12.75
2022-10-19T09:46:53.494Z,12.72
2022-10-19T09:49:04.883Z,12.70
2022-10-19T09:51:17.029Z,12.69
2022-10-19T09:53:24.011Z,12.68
2022-10-19T09:55:39.012Z,12.65
2022-10-19T09:57:51.111Z,12.62
2022-10-19T09:59:58.103Z,12.58
2022-10-19T10:02:18.517Z,12.55
2022-10-19T10:04:25.113Z,12.51
2022-10-19T10:06:31.455Z,12.47
2022-10-19T10:08:47.694Z,12.44
2022-10-19T10:11:10.355Z,12.40
2022-10-19T10:13:22.572Z,12.36
2022-10-19T10:15:43.462Z,12.30
2022-10-19T10:17:51.285Z,12.24
2022-10-19T10:20:00.657Z,12.21
2022-10-19T10:22:23.647Z,12.19
2022-10-19T10:24:32.709Z,12.18
2022-10-19T10:26:45.227Z,12.18
2022-10-19T10:28:53.273Z,12.16
2022-10-19T10:31:09.553Z,12.15
2022-10-19T10:33:40.279Z,12.14
2022-10-19T10:35:54.720Z,12.13
2022-10-19T10:38:29.397Z,12.10
2022-10-19T10:40:35.637Z,12.08
2022-10-19T10:42:47.220Z,12.06
2022-10-19T10:44:57.316Z,12.02
2022-10-19T10:47:07.941Z,11.99
2022-10-19T10:49:45.742Z,11.97
2022-10-19T10:52:13.269Z,11.90
2022-10-19T10:54:25.218Z,11.86
2022-10-19T10:56:34.933Z,11.83
2022-10-19T10:58:49.015Z,11.81
2022-10-19T11:00:55.632Z,11.80
2022-10-19T11:03:39.245Z,11.79
2022-10-19T11:06:00.235Z,11.79
2022-10-19T11:08:24.650Z,11.78
2022-10-19T11:10:38.041Z,11.77
2022-10-19T11:12:50.361Z,11.76
2022-10-19T11:15:24.195Z,11.75
2022-10-19T11:17:35.008Z,11.73
2022-10-19T11:19:51.264Z,11.71
2022-10-19T11:22:16.537Z,11.68
2022-10-19T11:24:47.828Z,11.67
2022-10-19T11:27:24.496Z,11.66
2022-10-19T11:29:33.577Z,11.63
2022-10-19T11:32:32.841Z,11.60
2022-10-19T11:34:52.449Z,11.58
2022-10-19T11:37:27.528Z,11.55
2022-10-19T11:39:53.165Z,11.54
2022-10-19T11:42:20.775Z,11.53
2022-10-19T11:45:04.927Z,11.52
2022-10-19T11:47:21.414Z,11.53
2022-10-19T11:49:33.207Z,11.54
2022-10-19T11:51:53.088Z,11.56
2022-10-19T11:54:17.972Z,11.56
2022-10-19T11:56:44.859Z,11.58
2022-10-19T11:59:07.928Z,11.60
2022-10-19T12:01:36.315Z,11.61
2022-10-19T12:04:02.582Z,11.61
2022-10-19T12:06:14.683Z,11.64
2022-10-19T12:08:43.293Z,11.64
2022-10-19T12:11:29.581Z,11.64
2022-10-19T12:13:48.116Z,11.63
2022-10-19T12:15:57.954Z,11.64
2022-10-19T12:18:14.304Z,11.65
2022-10-19T12:20:44.366Z,11.65
2022-10-19T12:22:51.453Z,11.64
2022-10-19T12:25:01.549Z,11.64
2022-10-19T12:27:12.315Z,11.63
2022-10-19T12:29:29.424Z,11.64
2022-10-19T12:31:37.271Z,11.67
2022-10-19T12:34:01.292Z,11.69
2022-10-19T12:36:16.240Z,11.71
2022-10-19T12:38:44.014Z,11.74
2022-10-19T12:41:12.110Z,11.76
2022-10-19T12:43:24.857Z,11.79
2022-10-19T12:45:43.111Z,11.82
2022-10-19T12:48:21.796Z,11.85
2022-10-19T12:50:55.090Z,11.87
2022-10-19T12:53:01.502Z,11.87
2022-10-19T12:55:36.033Z,11.89
2022-10-19T12:57:44.767Z,11.90
2022-10-19T13:00:02.362Z,11.92
2022-10-19T13:02:31.112Z,11.92
2022-10-19T13:04:38.950Z,11.93
2022-10-19T13:06:50.423Z,11.93
2022-10-19T13:08:57.116Z,11.92
2022-10-19T13:11:09.177Z,11.92
2022-10-19T13:13:33.913Z,11.93
2022-10-19T13:15:40.232Z,11.92
2022-10-19T13:17:52.096Z,11.92
2022-10-19T13:20:17.152Z,11.92
2022-10-19T13:22:29.075Z,11.92
2022-10-19T13:24:37.143Z,11.92
2022-10-19T13:26:43.687Z,11.91
2022-10-19T13:28:57.149Z,11.91
2022-10-19T13:31:06.940Z,11.90
2022-10-19T13:33:33.655Z,11.90
2022-10-19T13:35:40.678Z,11.90
2022-10-19T13:37:46.857Z,11.88
2022-10-19T13:39:52.986Z,11.87
2022-10-19T13:42:00.358Z,11.88
2022-10-19T13:44:16.407Z,11.87
2022-10-19T13:46:22.367Z,11.88
2022-10-19T13:49:05.506Z,11.88
2022-10-19T13:51:30.324Z,11.88
2022-10-19T13:53:49.848Z,11.87
2022-10-19T13:58:48.423Z,11.83
2022-10-19T14:01:24.689Z,11.80
2022-10-19T14:03:54.501Z,11.77
2022-10-19T14:06:05.919Z,11.75
2022-10-19T14:08:43.053Z,11.73
2022-10-19T14:11:00.955Z,11.71
2022-10-19T14:13:14.563Z,11.67
2022-10-19T14:15:31.145Z,11.64
2022-10-19T14:17:43.715Z,11.63
2022-10-19T14:19:53.674Z,11.62
2022-10-19T14:22:02.812Z,11.60
2022-10-19T14:24:36.833Z,11.59
2022-10-19T14:26:43.414Z,11.56
2022-10-19T14:29:00.812Z,11.54
2022-10-19T14:31:09.755Z,11.51
2022-10-19T14:33:18.962Z,11.46
2022-10-19T14:35:36.949Z,11.42
2022-10-19T14:37:45.162Z,11.38
2022-10-19T14:40:26.799Z,11.37
2022-10-19T14:42:48.469Z,11.36
2022-10-19T14:44:56.525Z,11.35
2022-10-19T14:47:04.174Z,11.34
2022-10-19T14:49:12.999Z,11.31
2022-10-19T14:51:56.003Z,11.30
2022-10-19T14:54:13.075Z,11.27
2022-10-19T14:56:29.886Z,11.25
2022-10-19T14:58:46.787Z,11.25
2022-10-19T15:00:54.966Z,11.26
2022-10-19T15:03:06.418Z,11.25
2022-10-19T15:05:29.652Z,11.26
2022-10-19T15:07:44.298Z,11.26
2022-10-19T15:09:59.597Z,11.28
2022-10-19T15:12:13.834Z,11.29
2022-10-19T15:14:24.580Z,11.31
2022-10-19T15:16:59.043Z,11.33
2022-10-19T15:19:16.996Z,11.36
2022-10-19T15:21:23.759Z,11.38
2022-10-19T15:23:43.664Z,11.40
2022-10-19T15:26:01.304Z,11.43
2022-10-19T15:28:34.973Z,11.48
2022-10-19T15:30:44.217Z,11.61
2022-10-19T15:33:09.578Z,11.81
2022-10-19T15:35:21.850Z,12.08
2022-10-19T15:37:28.270Z,12.30
2022-10-19T15:39:40.972Z,12.50
2022-10-19T15:41:49.960Z,12.71
2022-10-19T15:43:59.954Z,12.88
2022-10-19T15:46:22.819Z,13.06
2022-10-19T15:48:51.119Z,13.24
2022-10-19T15:51:00.360Z,13.46
2022-10-19T15:53:06.940Z,13.66
2022-10-19T15:55:15.496Z,13.87
2022-10-19T15:57:32.894Z,14.08
2022-10-19T15:59:39.474Z,14.30
2022-10-19T16:01:46.767Z,14.49
2022-10-19T16:03:53.434Z,14.68
2022-10-19T16:06:00.152Z,14.87
2022-10-19T16:08:10.169Z,15.06
2022-10-19T16:10:22.759Z,15.25
2022-10-19T16:12:28.782Z,15.45
2022-10-19T16:14:36.700Z,15.66
2022-10-19T16:16:43.562Z,15.87
2022-10-19T16:18:49.571Z,16.05
2022-10-19T16:20:55.516Z,16.22
2022-10-19T16:23:01.554Z,16.44
2022-10-19T16:25:08.052Z,16.65
2022-10-19T16:27:17.454Z,16.83
2022-10-19T16:29:26.755Z,17.01
2022-10-19T16:31:35.188Z,17.15
2022-10-19T16:33:41.402Z,17.29
2022-10-19T16:35:47.765Z,17.45
2022-10-19T16:37:54.307Z,17.61
2022-10-19T16:40:00.929Z,17.77
2022-10-19T16:42:08.255Z,17.94
2022-10-19T16:44:14.840Z,18.10
2022-10-19T16:46:24.328Z,18.25
2022-10-19T16:48:31.010Z,18.39
2022-10-19T16:50:37.814Z,18.50
2022-10-19T16:52:44.402Z,18.61
2022-10-19T16:54:50.343Z,18.69
2022-10-19T16:56:56.969Z,18.74
2022-10-19T16:59:08.038Z,18.80
2022-10-19T17:01:19.487Z,18.90
2022-10-19T17:03:25.588Z,19.04
2022-10-19T17:05:31.607Z,19.19
2022-10-19T17:07:37.805Z,19.34
2022-10-19T17:09:44.362Z,19.48
2022-10-19T17:11:50.439Z,19.64
2022-10-19T17:13:59.426Z,19.82
2022-10-19T17:16:07.151Z,19.98
2022-10-19T17:18:13.163Z,20.11
2022-10-19T17:20:19.226Z,20.23
2022-10-19T17:22:25.476Z,20.31
2022-10-19T17:24:32.580Z,20.34
2022-10-19T17:26:44.703Z,20.37
2022-10-19T17:28:51.025Z,20.47
2022-10-19T17:30:58.878Z,20.58
2022-10-19T17:33:05.498Z,20.64
2022-10-19T17:35:11.981Z,20.71
2022-10-19T17:37:18.194Z,20.79
2022-10-19T17:39:29.808Z,20.83
2022-10-19T17:41:37.236Z,20.93
2022-10-19T17:43:45.286Z,21.04
2022-10-19T17:46:06.322Z,21.17
2022-10-19T17:48:13.039Z,21.29
2022-10-19T17:50:19.773Z,21.35
2022-10-19T17:52:26.109Z,21.43
2022-10-19T17:54:43.420Z,21.52
2022-10-19T17:56:59.433Z,21.66
2022-10-19T17:59:08.868Z,21.78
2022-10-19T18:01:16.590Z,21.90
2022-10-19T18:03:24.003Z,22.00
2022-10-19T18:05:30.236Z,22.10
2022-10-19T18:07:36.992Z,22.20
2022-10-19T18:09:43.254Z,22.32
2022-10-19T18:11:49.499Z,22.41
2022-10-19T18:14:00.518Z,22.48
2022-10-19T18:16:10.982Z,22.55
2022-10-19T18:18:19.925Z,22.65
2022-10-19T18:20:25.972Z,22.76
2022-10-19T18:22:32.525Z,22.88
2022-10-19T18:24:39.839Z,23.00
2022-10-19T18:26:46.370Z,23.19
2022-10-19T18:28:56.441Z,23.37
2022-10-19T18:31:15.799Z,23.58
2022-10-19T18:33:24.286Z,23.81
2022-10-19T18:35:31.296Z,23.99
2022-10-19T18:37:37.764Z,24.14
2022-10-19T18:39:44.565Z,24.32
2022-10-19T18:41:55.410Z,24.42
2022-10-19T18:44:04.567Z,24.50
2022-10-19T18:46:13.068Z,24.61
2022-10-19T18:48:20.036Z,24.74
2022-10-19T18:50:26.853Z,24.88
2022-10-19T18:52:37.070Z,25.08
2022-10-19T18:54:44.222Z,25.25
2022-10-19T18:56:50.748Z,25.39
2022-10-19T18:58:57.809Z,25.52
2022-10-19T19:01:12.017Z,25.63
2022-10-19T19:03:21.718Z,25.72
2022-10-19T19:05:33.858Z,25.79
2022-10-19T19:07:42.163Z,25.86
2022-10-19T19:10:01.249Z,25.93
2022-10-19T19:12:08.756Z,26.01
2022-10-19T19:14:23.737Z,26.10
2022-10-19T19:16:34.998Z,26.17
2022-10-19T19:18:42.618Z,26.27
2022-10-19T19:20:50.280Z,26.37
2022-10-19T19:23:00.019Z,26.47
2022-10-19T19:25:07.755Z,26.49
2022-10-19T19:27:14.927Z,26.54
2022-10-19T19:29:23.468Z,26.62
2022-10-19T19:31:34.248Z,26.69
2022-10-19T19:33:41.431Z,26.78
2022-10-19T19:35:50.042Z,26.86
2022-10-19T19:37:57.804Z,26.91
2022-10-19T19:40:10.336Z,26.95
2022-10-19T19:42:25.676Z,26.99
2022-10-19T19:44:35.806Z,27.07
2022-10-19T19:46:44.233Z,27.20
2022-10-19T19:48:54.133Z,27.32
2022-10-19T19:51:04.535Z,27.38
2022-10-19T19:53:14.323Z,27.43
2022-10-19T19:55:21.415Z,27.40
2022-10-19T19:57:31.008Z,27.33
2022-10-19T19:59:42.328Z,27.28
2022-10-19T20:01:54.450Z,27.25
2022-10-19T20:04:08.328Z,27.27
2022-10-19T20:06:19.692Z,27.29
2022-10-19T20:08:29.476Z,27.28
2022-10-19T20:10:48.659Z,27.26
2022-10-19T20:12:59.396Z,27.19
2022-10-19T20:15:08.085Z,27.18
2022-10-19T20:17:16.261Z,27.23
2022-10-19T20:19:24.765Z,27.28
2022-10-19T20:21:33.015Z,27.36
2022-10-19T20:23:41.535Z,27.42
2022-10-19T20:25:55.238Z,27.48
2022-10-19T20:28:03.018Z,27.55
2022-10-19T20:30:14.294Z,27.55
2022-10-19T20:32:22.218Z,27.52
2022-10-19T20:34:30.873Z,27.49
2022-10-19T20:36:44.208Z,27.47
2022-10-19T20:38:57.171Z,27.47
2022-10-19T20:41:09.273Z,27.45
2022-10-19T20:43:16.561Z,27.46
2022-10-19T20:45:26.762Z,27.52
2022-10-19T20:47:36.632Z,27.52
2022-10-19T20:49:45.160Z,27.52
2022-10-19T20:51:56.471Z,27.55
2022-10-19T20:54:05.885Z,27.55
2022-10-19T20:56:13.997Z,27.53
2022-10-19T20:58:21.347Z,27.51
2022-10-19T21:00:28.828Z,27.50
2022-10-19T21:02:38.977Z,27.49
2022-10-19T21:04:46.588Z,27.52
2022-10-19T21:06:54.517Z,27.57
2022-10-19T21:09:02.604Z,27.57
2022-10-19T21:11:26.114Z,27.57
2022-10-19T21:13:33.768Z,27.51
2022-10-19T21:15:46.272Z,27.51
2022-10-19T21:17:54.563Z,27.47
2022-10-19T21:20:04.127Z,27.46
2022-10-19T21:22:13.431Z,27.45
2022-10-19T21:24:28.834Z,27.45
2022-10-19T21:26:38.207Z,27.42
2022-10-19T21:28:56.885Z,27.34
2022-10-19T21:31:09.577Z,27.25
2022-10-19T21:33:17.535Z,27.23
2022-10-19T21:35:25.385Z,27.17
2022-10-19T21:37:32.978Z,27.18
2022-10-19T21:39:44.546Z,27.22
2022-10-19T21:41:52.417Z,27.28
2022-10-19T21:44:05.188Z,27.30
2022-10-19T21:46:17.912Z,27.28
2022-10-19T21:48:26.223Z,27.28
2022-10-19T21:50:36.888Z,27.25
2022-10-19T21:52:44.046Z,27.27
2022-10-19T21:54:51.328Z,27.30
2022-10-19T21:56:59.951Z,27.29
2022-10-19T21:59:11.136Z,27.28
2022-10-19T22:01:23.520Z,27.26
2022-10-19T22:03:31.393Z,27.26
2022-10-19T22:05:40.088Z,27.27
2022-10-19T22:07:47.296Z,27.31
2022-10-19T22:10:02.161Z,27.31
2022-10-19T22:14:29.498Z,27.40
2022-10-19T22:16:41.128Z,27.43
2022-10-19T22:18:49.593Z,27.45
2022-10-19T22:20:57.185Z,27.45
2022-10-19T22:23:05.723Z,27.46
2022-10-19T22:25:12.964Z,27.45
2022-10-19T22:27:22.461Z,27.45
2022-10-19T22:29:29.516Z,27.47
2022-10-19T22:31:38.515Z,27.47
2022-10-19T22:33:46.635Z,27.44
2022-10-19T22:36:03.806Z,27.42
2022-10-19T22:38:12.468Z,27.42
2022-10-19T22:40:19.868Z,27.42
2022-10-19T22:43:21.708Z,27.40
2022-10-19T22:45:49.335Z,27.38
2022-10-19T22:47:55.775Z,27.38
2022-10-19T22:50:02.471Z,27.39
2022-10-19T22:52:08.957Z,27.38
2022-10-19T22:54:15.817Z,27.34
2022-10-19T22:56:22.294Z,27.31
2022-10-19T22:58:28.931Z,27.29
2022-10-19T23:00:35.263Z,27.26
2022-10-19T23:02:41.390Z,27.24
2022-10-19T23:04:48.110Z,27.20
2022-10-19T23:06:54.708Z,27.16
2022-10-19T23:09:01.862Z,27.13
2022-10-19T23:11:08.982Z,27.13
2022-10-19T23:13:16.228Z,27.15
2022-10-19T23:15:23.807Z,27.17
2022-10-19T23:17:30.094Z,27.18
2022-10-19T23:19:36.442Z,27.18
2022-10-19T23:21:44.263Z,27.16
2022-10-19T23:23:50.811Z,27.17
2022-10-19T23:26:12.820Z,27.15
2022-10-19T23:28:19.919Z,27.13
2022-10-19T23:30:28.236Z,27.09
2022-10-19T23:32:35.499Z,27.03
2022-10-19T23:34:47.435Z,26.98
2022-10-19T23:36:56.478Z,26.95
2022-10-19T23:39:07.100Z,26.91
2022-10-19T23:41:15.315Z,26.85
2022-10-19T23:43:22.276Z,26.82
2022-10-19T23:45:29.721Z,26.79
2022-10-19T23:47:37.584Z,26.76
2022-10-19T23:49:46.270Z,26.73
2022-10-19T23:51:59.507Z,26.69
2022-10-19T23:54:06.423Z,26.65
2022-10-19T23:56:20.807Z,26.59
2022-10-19T23:58:36.812Z,26.58
